Ana Sayfa
METAR-TAF:

METAR-TAF

Havaalanları :

Windham Airport

Willimantic, Connecticut, Amerika Birleşik Devletleri

Enlem: 41-44-31N, Boylam: 072-11-01W, yükseklik: 75 m

Güncel hava durumu gözlemi

Rapor saat 08:52 UTC de 1 saat ve 3 dakika önce yapıldı.
Rüzgar kuzey/kuzeydoğudan 3 kt
Sıcaklık 1°C
Nem 93%
Basınç 1018 hPa
Görüş mesafesi: 16.1 km
200 ft yükseklikte parçalı bulutlu

METAR: KIJD 200852Z AUTO 02003KT 10SM SCT002 01/00 A3007 RMK AO2 SLP184 T00060000 58003

Saat: 05:55 (09:55 UTC)


TAF: eksik

4.000'den fazla havaalanı için hava durumu gözlemleri ve tahminleri (METAR ve TAF raporları).

Kullanılabilir istasyonlar harita üzerinde sarı ve kırmızı noktalarla gösterilir.

İstasyonun adını görmek için fareyi noktanın üzerinde gezdirin.

Sonrasında hava gözlem ve tahminlerini görmek için tıklayın.

Haritayı değiştirmek için: yaklaştırmak için siyah artı işaretli yeşil düğmeye ve uzaklaştırmak için de eksi işaretli düğmeye hızla tıklayın; bitişik haritalar için yeşil okları kullanın.


METAR-TAF: